sensor_id;sensor_type;location;lat;lon;timestamp;pressure;altitude;pressure_sealevel;temperature;humidity
39897;BME280;25567;48.276;14.242;2023-03-22T00:02:07;98302.56;;;7.77;94.27
39897;BME280;25567;48.276;14.242;2023-03-22T00:04:33;98297.91;;;7.79;94.82
39897;BME280;25567;48.276;14.242;2023-03-22T00:07:00;98303.56;;;7.82;97.34
39897;BME280;25567;48.276;14.242;2023-03-22T00:09:27;98312.91;;;7.78;97.56
39897;BME280;25567;48.276;14.242;2023-03-22T00:11:54;98309.69;;;7.76;96.86
39897;BME280;25567;48.276;14.242;2023-03-22T00:14:21;98307.84;;;7.77;97.28
39897;BME280;25567;48.276;14.242;2023-03-22T00:16:47;98306.84;;;7.78;97.20
39897;BME280;25567;48.276;14.242;2023-03-22T00:19:15;98309.69;;;7.76;96.65
39897;BME280;25567;48.276;14.242;2023-03-22T00:21:43;98308.50;;;7.72;96.43
39897;BME280;25567;48.276;14.242;2023-03-22T00:24:09;98305.03;;;7.72;96.29
39897;BME280;25567;48.276;14.242;2023-03-22T00:26:36;98306.09;;;7.71;95.51
39897;BME280;25567;48.276;14.242;2023-03-22T00:29:03;98302.22;;;7.73;96.04
39897;BME280;25567;48.276;14.242;2023-03-22T00:31:30;98299.75;;;7.72;95.90
39897;BME280;25567;48.276;14.242;2023-03-22T00:33:57;98303.81;;;7.74;95.24
39897;BME280;25567;48.276;14.242;2023-03-22T00:36:24;98296.72;;;7.75;95.48
39897;BME280;25567;48.276;14.242;2023-03-22T00:38:51;98290.25;;;7.71;95.45
39897;BME280;25567;48.276;14.242;2023-03-22T00:41:20;98299.34;;;7.75;96.02
39897;BME280;25567;48.276;14.242;2023-03-22T00:43:48;98299.34;;;7.75;97.81
39897;BME280;25567;48.276;14.242;2023-03-22T00:46:17;98292.88;;;7.71;98.77
39897;BME280;25567;48.276;14.242;2023-03-22T00:48:45;98294.13;;;7.68;99.18
39897;BME280;25567;48.276;14.242;2023-03-22T00:51:16;98293.13;;;7.62;99.46
39897;BME280;25567;48.276;14.242;2023-03-22T00:53:44;98291.66;;;7.66;97.94
39897;BME280;25567;48.276;14.242;2023-03-22T00:56:11;98290.25;;;7.71;97.96
39897;BME280;25567;48.276;14.242;2023-03-22T00:58:40;98294.31;;;7.66;96.94
39897;BME280;25567;48.276;14.242;2023-03-22T01:01:07;98291.25;;;7.70;96.78
39897;BME280;25567;48.276;14.242;2023-03-22T01:03:34;98297.13;;;7.72;96.52
39897;BME280;25567;48.276;14.242;2023-03-22T01:06:01;98296.75;;;7.68;97.32
39897;BME280;25567;48.276;14.242;2023-03-22T01:08:27;98301.59;;;7.71;97.84
39897;BME280;25567;48.276;14.242;2023-03-22T01:10:59;98299.34;;;7.75;97.52
39897;BME280;25567;48.276;14.242;2023-03-22T01:13:27;98306.44;;;7.74;98.48
39897;BME280;25567;48.276;14.242;2023-03-22T01:15:54;98306.03;;;7.77;99.23
39897;BME280;25567;48.276;14.242;2023-03-22T01:18:21;98300.53;;;7.79;98.68
39897;BME280;25567;48.276;14.242;2023-03-22T01:20:50;98305.00;;;7.78;99.03
39897;BME280;25567;48.276;14.242;2023-03-22T01:23:16;98303.81;;;7.74;99.94
39897;BME280;25567;48.276;14.242;2023-03-22T01:25:43;98305.81;;;7.79;100.00
39897;BME280;25567;48.276;14.242;2023-03-22T01:28:13;98301.16;;;7.74;100.00
39897;BME280;25567;48.276;14.242;2023-03-22T01:30:39;98291.44;;;7.75;100.00
39897;BME280;25567;48.276;14.242;2023-03-22T01:33:07;98293.84;;;7.76;100.00
39897;BME280;25567;48.276;14.242;2023-03-22T01:35:35;98283.50;;;7.75;100.00
39897;BME280;25567;48.276;14.242;2023-03-22T01:38:02;98282.69;;;7.74;100.00
39897;BME280;25567;48.276;14.242;2023-03-22T01:40:29;98280.88;;;7.75;100.00
39897;BME280;25567;48.276;14.242;2023-03-22T01:42:56;98275.94;;;7.78;100.00
39897;BME280;25567;48.276;14.242;2023-03-22T01:48:20;98260.06;;;7.85;100.00
39897;BME280;25567;48.276;14.242;2023-03-22T01:50:59;98260.88;;;7.85;100.00
39897;BME280;25567;48.276;14.242;2023-03-22T01:53:31;98250.16;;;7.80;100.00
39897;BME280;25567;48.276;14.242;2023-03-22T01:56:00;98248.13;;;7.82;100.00
39897;BME280;25567;48.276;14.242;2023-03-22T01:58:27;98249.50;;;7.85;100.00
39897;BME280;25567;48.276;14.242;2023-03-22T02:00:54;98236.28;;;7.85;100.00
39897;BME280;25567;48.276;14.242;2023-03-22T02:03:44;98243.41;;;7.84;100.00
39897;BME280;25567;48.276;14.242;2023-03-22T02:06:13;98245.84;;;7.86;100.00
39897;BME280;25567;48.276;14.242;2023-03-22T02:08:39;98247.47;;;7.87;100.00
39897;BME280;25567;48.276;14.242;2023-03-22T02:11:13;98240.13;;;7.89;100.00
39897;BME280;25567;48.276;14.242;2023-03-22T02:19:09;98237.91;;;7.86;100.00
39897;BME280;25567;48.276;14.242;2023-03-22T02:22:01;98238.72;;;7.87;100.00
39897;BME280;25567;48.276;14.242;2023-03-22T02:27:34;98233.44;;;7.87;100.00
39897;BME280;25567;48.276;14.242;2023-03-22T02:32:58;98228.97;;;7.87;100.00
39897;BME280;25567;48.276;14.242;2023-03-22T02:44:24;98213.91;;;7.88;100.00
39897;BME280;25567;48.276;14.242;2023-03-22T02:47:00;98224.06;;;7.91;100.00
39897;BME280;25567;48.276;14.242;2023-03-22T02:49:45;98220.59;;;7.90;100.00
39897;BME280;25567;48.276;14.242;2023-03-22T02:52:21;98216.16;;;7.91;100.00
39897;BME280;25567;48.276;14.242;2023-03-22T02:57:35;98219.59;;;7.91;100.00
39897;BME280;25567;48.276;14.242;2023-03-22T03:00:07;98214.09;;;7.93;100.00
39897;BME280;25567;48.276;14.242;2023-03-22T03:02:42;98214.91;;;7.93;100.00
39897;BME280;25567;48.276;14.242;2023-03-22T03:05:11;98221.00;;;7.94;100.00
39897;BME280;25567;48.276;14.242;2023-03-22T03:07:42;98224.22;;;7.96;100.00
39897;BME280;25567;48.276;14.242;2023-03-22T03:10:14;98230.31;;;7.96;100.00
39897;BME280;25567;48.276;14.242;2023-03-22T03:12:42;98239.03;;;7.97;100.00
39897;BME280;25567;48.276;14.242;2023-03-22T03:15:14;98236.25;;;7.92;100.00
39897;BME280;25567;48.276;14.242;2023-03-22T03:17:50;98238.72;;;7.87;100.00
39897;BME280;25567;48.276;14.242;2023-03-22T03:23:18;98233.28;;;7.81;100.00
39897;BME280;25567;48.276;14.242;2023-03-22T03:36:56;98226.00;;;7.77;100.00
39897;BME280;25567;48.276;14.242;2023-03-22T03:39:29;98231.28;;;7.77;100.00
39897;BME280;25567;48.276;14.242;2023-03-22T03:42:00;98228.28;;;7.73;100.00
39897;BME280;25567;48.276;14.242;2023-03-22T03:44:29;98231.56;;;7.68;100.00
39897;BME280;25567;48.276;14.242;2023-03-22T03:46:57;98235.22;;;7.67;100.00
39897;BME280;25567;48.276;14.242;2023-03-22T03:49:24;98235.25;;;7.61;100.00
39897;BME280;25567;48.276;14.242;2023-03-22T03:51:54;98239.13;;;7.58;100.00
39897;BME280;25567;48.276;14.242;2023-03-22T03:54:22;98234.28;;;7.55;100.00
39897;BME280;25567;48.276;14.242;2023-03-22T03:56:49;98239.00;;;7.46;100.00
39897;BME280;25567;48.276;14.242;2023-03-22T03:59:17;98232.31;;;7.44;100.00
39897;BME280;25567;48.276;14.242;2023-03-22T04:01:44;98224.69;;;7.35;100.00
39897;BME280;25567;48.276;14.242;2023-03-22T04:04:18;98230.00;;;7.29;100.00
39897;BME280;25567;48.276;14.242;2023-03-22T04:06:53;98227.19;;;7.24;100.00
39897;BME280;25567;48.276;14.242;2023-03-22T04:09:24;98225.19;;;7.19;100.00
39897;BME280;25567;48.276;14.242;2023-03-22T04:11:54;98231.13;;;7.08;100.00
39897;BME280;25567;48.276;14.242;2023-03-22T04:14:22;98235.84;;;6.99;100.00
39897;BME280;25567;48.276;14.242;2023-03-22T04:16:49;98236.91;;;6.91;100.00
39897;BME280;25567;48.276;14.242;2023-03-22T04:19:16;98232.84;;;6.89;100.00
39897;BME280;25567;48.276;14.242;2023-03-22T04:21:43;98241.16;;;6.85;100.00
39897;BME280;25567;48.276;14.242;2023-03-22T04:24:10;98245.25;;;6.81;100.00
39897;BME280;25567;48.276;14.242;2023-03-22T04:26:38;98241.22;;;6.72;100.00
39897;BME280;25567;48.276;14.242;2023-03-22T04:29:05;98243.66;;;6.67;100.00
39897;BME280;25567;48.276;14.242;2023-03-22T04:31:32;98246.31;;;6.67;100.00
39897;BME280;25567;48.276;14.242;2023-03-22T04:33:59;98244.72;;;6.66;100.00
39897;BME280;25567;48.276;14.242;2023-03-22T04:36:33;98245.28;;;6.68;100.00
39897;BME280;25567;48.276;14.242;2023-03-22T04:39:05;98243.50;;;6.62;100.00
39897;BME280;25567;48.276;14.242;2023-03-22T04:41:33;98251.81;;;6.59;100.00
39897;BME280;25567;48.276;14.242;2023-03-22T04:44:00;98250.41;;;6.56;100.00
39897;BME280;25567;48.276;14.242;2023-03-22T04:46:29;98254.66;;;6.57;100.00
39897;BME280;25567;48.276;14.242;2023-03-22T04:48:57;98253.44;;;6.53;100.00
39897;BME280;25567;48.276;14.242;2023-03-22T04:51:27;98250.19;;;6.51;100.00
39897;BME280;25567;48.276;14.242;2023-03-22T04:53:54;98261.19;;;6.41;99.96
39897;BME280;25567;48.276;14.242;2023-03-22T04:56:20;98262.81;;;6.36;99.46
39897;BME280;25567;48.276;14.242;2023-03-22T04:58:47;98259.38;;;6.22;100.00
39897;BME280;25567;48.276;14.242;2023-03-22T05:01:16;98265.69;;;6.27;100.00
39897;BME280;25567;48.276;14.242;2023-03-22T05:03:44;98263.22;;;6.26;100.00
39897;BME280;25567;48.276;14.242;2023-03-22T05:06:13;98265.28;;;6.24;100.00
39897;BME280;25567;48.276;14.242;2023-03-22T05:08:40;98259.19;;;6.23;100.00
39897;BME280;25567;48.276;14.242;2023-03-22T05:11:11;98268.91;;;6.23;100.00
39897;BME280;25567;48.276;14.242;2023-03-22T05:13:38;98257.97;;;6.19;100.00
39897;BME280;25567;48.276;14.242;2023-03-22T05:16:06;98258.38;;;6.16;100.00
39897;BME280;25567;48.276;14.242;2023-03-22T05:18:33;98262.44;;;6.18;100.00
39897;BME280;25567;48.276;14.242;2023-03-22T05:21:00;98268.91;;;6.16;100.00
39897;BME280;25567;48.276;14.242;2023-03-22T05:23:29;98264.88;;;6.13;100.00
39897;BME280;25567;48.276;14.242;2023-03-22T05:25:55;98260.22;;;6.15;100.00
39897;BME280;25567;48.276;14.242;2023-03-22T05:28:30;98261.63;;;6.11;100.00
39897;BME280;25567;48.276;14.242;2023-03-22T05:30:57;98267.50;;;6.13;100.00
39897;BME280;25567;48.276;14.242;2023-03-22T05:33:24;98264.66;;;6.15;100.00
39897;BME280;25567;48.276;14.242;2023-03-22T05:35:53;98256.16;;;6.20;100.00
39897;BME280;25567;48.276;14.242;2023-03-22T05:38:19;98253.13;;;6.16;100.00
39897;BME280;25567;48.276;14.242;2023-03-22T05:40:48;98245.84;;;6.18;100.00
39897;BME280;25567;48.276;14.242;2023-03-22T05:43:14;98242.59;;;6.03;100.00
39897;BME280;25567;48.276;14.242;2023-03-22T05:45:41;98242.38;;;6.11;100.00
39897;BME280;25567;48.276;14.242;2023-03-22T05:48:08;98248.88;;;6.15;100.00
39897;BME280;25567;48.276;14.242;2023-03-22T05:50:35;98245.63;;;6.20;100.00
39897;BME280;25567;48.276;14.242;2023-03-22T05:53:02;98254.72;;;6.24;100.00
39897;BME280;25567;48.276;14.242;2023-03-22T05:55:29;98257.16;;;6.25;100.00
39897;BME280;25567;48.276;14.242;2023-03-22T05:57:58;98266.28;;;6.29;100.00
39897;BME280;25567;48.276;14.242;2023-03-22T06:00:25;98269.09;;;6.34;100.00
39897;BME280;25567;48.276;14.242;2023-03-22T06:02:52;98270.31;;;6.39;100.00
39897;BME280;25567;48.276;14.242;2023-03-22T06:05:22;98273.94;;;6.44;100.00
39897;BME280;25567;48.276;14.242;2023-03-22T06:07:48;98273.34;;;6.49;100.00
39897;BME280;25567;48.276;14.242;2023-03-22T06:10:16;98279.81;;;6.53;100.00
39897;BME280;25567;48.276;14.242;2023-03-22T06:12:43;98280.78;;;6.59;100.00
39897;BME280;25567;48.276;14.242;2023-03-22T06:15:11;98273.69;;;6.66;100.00
39897;BME280;25567;48.276;14.242;2023-03-22T06:17:37;98265.16;;;6.71;100.00
39897;BME280;25567;48.276;14.242;2023-03-22T06:20:05;98267.19;;;6.75;100.00
39897;BME280;25567;48.276;14.242;2023-03-22T06:22:35;98267.97;;;6.82;100.00
39897;BME280;25567;48.276;14.242;2023-03-22T06:25:03;98269.97;;;6.87;100.00
39897;BME280;25567;48.276;14.242;2023-03-22T06:27:30;98268.94;;;6.88;100.00
39897;BME280;25567;48.276;14.242;2023-03-22T06:29:57;98275.22;;;6.94;100.00
39897;BME280;25567;48.276;14.242;2023-03-22T06:32:24;98272.16;;;6.97;100.00
39897;BME280;25567;48.276;14.242;2023-03-22T06:34:53;98281.69;;;6.98;100.00
39897;BME280;25567;48.276;14.242;2023-03-22T06:37:20;98272.13;;;7.04;100.00
39897;BME280;25567;48.276;14.242;2023-03-22T06:39:47;98274.75;;;7.10;100.00
39897;BME280;25567;48.276;14.242;2023-03-22T06:42:14;98283.63;;;7.16;100.00
39897;BME280;25567;48.276;14.242;2023-03-22T06:44:41;98283.00;;;7.21;100.00
39897;BME280;25567;48.276;14.242;2023-03-22T06:47:10;98288.47;;;7.26;100.00
39897;BME280;25567;48.276;14.242;2023-03-22T06:49:38;98288.84;;;7.29;100.00
39897;BME280;25567;48.276;14.242;2023-03-22T06:52:05;98291.44;;;7.43;100.00
39897;BME280;25567;48.276;14.242;2023-03-22T06:54:32;98293.06;;;7.69;100.00
39897;BME280;25567;48.276;14.242;2023-03-22T06:56:59;98295.44;;;7.84;100.00
39897;BME280;25567;48.276;14.242;2023-03-22T06:59:25;98295.00;;;7.87;100.00
39897;BME280;25567;48.276;14.242;2023-03-22T07:01:52;98295.00;;;7.87;100.00
39897;BME280;25567;48.276;14.242;2023-03-22T07:04:19;98292.44;;;7.74;100.00
39897;BME280;25567;48.276;14.242;2023-03-22T07:06:46;98304.47;;;7.70;100.00
39897;BME280;25567;48.276;14.242;2023-03-22T07:09:13;98299.34;;;7.75;100.00
39897;BME280;25567;48.276;14.242;2023-03-22T07:11:40;98300.06;;;7.57;100.00
39897;BME280;25567;48.276;14.242;2023-03-22T07:14:07;98291.75;;;7.53;100.00
39897;BME280;25567;48.276;14.242;2023-03-22T07:16:34;98286.19;;;7.68;100.00
39897;BME280;25567;48.276;14.242;2023-03-22T07:19:00;98283.88;;;7.78;100.00
39897;BME280;25567;48.276;14.242;2023-03-22T07:21:27;98274.31;;;7.84;100.00
39897;BME280;25567;48.276;14.242;2023-03-22T07:23:54;98282.00;;;7.85;100.00
39897;BME280;25567;48.276;14.242;2023-03-22T07:26:20;98281.94;;;7.92;100.00
39897;BME280;25567;48.276;14.242;2023-03-22T07:28:47;98287.84;;;8.13;100.00
39897;BME280;25567;48.276;14.242;2023-03-22T07:31:15;98281.22;;;8.04;100.00
39897;BME280;25567;48.276;14.242;2023-03-22T07:33:42;98288.53;;;8.08;100.00
39897;BME280;25567;48.276;14.242;2023-03-22T07:36:09;98289.88;;;8.17;100.00
39897;BME280;25567;48.276;14.242;2023-03-22T07:38:36;98285.13;;;8.26;100.00
39897;BME280;25567;48.276;14.242;2023-03-22T07:41:03;98284.03;;;8.34;100.00
39897;BME280;25567;48.276;14.242;2023-03-22T07:43:30;98287.84;;;8.38;100.00
39897;BME280;25567;48.276;14.242;2023-03-22T07:46:00;98285.31;;;8.50;100.00
39897;BME280;25567;48.276;14.242;2023-03-22T07:48:27;98289.09;;;8.61;100.00
39897;BME280;25567;48.276;14.242;2023-03-22T07:50:56;98295.34;;;8.66;100.00
39897;BME280;25567;48.276;14.242;2023-03-22T07:53:23;98288.25;;;8.97;100.00
39897;BME280;25567;48.276;14.242;2023-03-22T07:55:49;98289.34;;;9.08;100.00
39897;BME280;25567;48.276;14.242;2023-03-22T07:58:16;98283.88;;;9.22;100.00
39897;BME280;25567;48.276;14.242;2023-03-22T08:00:43;98283.31;;;9.50;100.00
39897;BME280;25567;48.276;14.242;2023-03-22T08:03:11;98282.84;;;9.53;100.00
39897;BME280;25567;48.276;14.242;2023-03-22T08:05:40;98277.81;;;9.63;100.00
39897;BME280;25567;48.276;14.242;2023-03-22T08:08:08;98280.16;;;9.72;99.26
39897;BME280;25567;48.276;14.242;2023-03-22T08:10:35;98283.31;;;9.92;98.61
39897;BME280;25567;48.276;14.242;2023-03-22T08:13:02;98281.00;;;10.08;97.88
39897;BME280;25567;48.276;14.242;2023-03-22T08:15:29;98275.59;;;10.14;97.21
39897;BME280;25567;48.276;14.242;2023-03-22T08:17:56;98273.88;;;10.20;97.20
39897;BME280;25567;48.276;14.242;2023-03-22T08:20:24;98263.97;;;10.27;97.38
39897;BME280;25567;48.276;14.242;2023-03-22T08:22:53;98265.47;;;10.59;98.23
39897;BME280;25567;48.276;14.242;2023-03-22T08:25:20;98269.88;;;10.53;95.32
39897;BME280;25567;48.276;14.242;2023-03-22T08:27:47;98273.19;;;10.60;95.97
39897;BME280;25567;48.276;14.242;2023-03-22T08:30:14;98264.63;;;10.70;94.82
39897;BME280;25567;48.276;14.242;2023-03-22T08:32:41;98272.22;;;10.90;94.44
39897;BME280;25567;48.276;14.242;2023-03-22T08:35:08;98262.25;;;10.97;92.43
39897;BME280;25567;48.276;14.242;2023-03-22T08:37:35;98265.13;;;11.08;91.10
39897;BME280;25567;48.276;14.242;2023-03-22T08:40:02;98263.72;;;11.17;89.56
39897;BME280;25567;48.276;14.242;2023-03-22T08:42:32;98267.97;;;11.18;88.36
39897;BME280;25567;48.276;14.242;2023-03-22T08:44:59;98259.88;;;11.42;84.96
39897;BME280;25567;48.276;14.242;2023-03-22T08:47:26;98260.59;;;11.66;83.78
39897;BME280;25567;48.276;14.242;2023-03-22T08:49:53;98251.63;;;11.72;83.95
39897;BME280;25567;48.276;14.242;2023-03-22T08:52:19;98254.56;;;11.88;83.94
39897;BME280;25567;48.276;14.242;2023-03-22T08:54:46;98246.03;;;12.02;84.99
39897;BME280;25567;48.276;14.242;2023-03-22T08:57:13;98250.38;;;12.09;81.04
39897;BME280;25567;48.276;14.242;2023-03-22T08:59:40;98250.06;;;12.22;82.83
39897;BME280;25567;48.276;14.242;2023-03-22T09:02:07;98247.97;;;12.07;79.24
39897;BME280;25567;48.276;14.242;2023-03-22T09:04:34;98253.13;;;12.14;79.24
39897;BME280;25567;48.276;14.242;2023-03-22T09:07:01;98255.53;;;12.15;80.55
39897;BME280;25567;48.276;14.242;2023-03-22T09:09:28;98254.69;;;12.32;78.56
39897;BME280;25567;48.276;14.242;2023-03-22T09:11:55;98251.16;;;12.43;77.01
39897;BME280;25567;48.276;14.242;2023-03-22T09:14:21;98251.53;;;12.52;76.96
39897;BME280;25567;48.276;14.242;2023-03-22T09:16:48;98250.78;;;12.57;77.04
39897;BME280;25567;48.276;14.242;2023-03-22T09:19:15;98245.53;;;12.62;74.99
39897;BME280;25567;48.276;14.242;2023-03-22T09:21:41;98248.50;;;12.65;74.09
39897;BME280;25567;48.276;14.242;2023-03-22T09:24:08;98246.41;;;12.67;73.86
39897;BME280;25567;48.276;14.242;2023-03-22T09:26:35;98242.25;;;12.77;75.67
39897;BME280;25567;48.276;14.242;2023-03-22T09:29:05;98241.38;;;12.71;76.24
39897;BME280;25567;48.276;14.242;2023-03-22T09:31:32;98236.59;;;12.95;75.56
39897;BME280;25567;48.276;14.242;2023-03-22T09:33:59;98230.59;;;13.05;73.60
39897;BME280;25567;48.276;14.242;2023-03-22T09:36:26;98238.28;;;13.01;72.40
39897;BME280;25567;48.276;14.242;2023-03-22T09:38:52;98234.06;;;13.06;74.37
39897;BME280;25567;48.276;14.242;2023-03-22T09:41:23;98233.78;;;13.29;72.48
39897;BME280;25567;48.276;14.242;2023-03-22T09:43:56;98229.63;;;13.39;70.97
39897;BME280;25567;48.276;14.242;2023-03-22T09:46:30;98222.19;;;13.41;70.33
39897;BME280;25567;48.276;14.242;2023-03-22T09:49:00;98220.59;;;13.40;69.46
39897;BME280;25567;48.276;14.242;2023-03-22T09:51:44;98221.78;;;13.54;68.91
39897;BME280;25567;48.276;14.242;2023-03-22T09:54:17;98215.72;;;13.64;69.70
39897;BME280;25567;48.276;14.242;2023-03-22T09:56:54;98217.28;;;13.92;69.52
39897;BME280;25567;48.276;14.242;2023-03-22T09:59:31;98212.59;;;14.10;67.96
39897;BME280;25567;48.276;14.242;2023-03-22T10:07:52;98199.34;;;14.25;63.97
39897;BME280;25567;48.276;14.242;2023-03-22T10:10:22;98201.31;;;14.45;65.93
39897;BME280;25567;48.276;14.242;2023-03-22T10:13:12;98188.81;;;14.56;64.76
39897;BME280;25567;48.276;14.242;2023-03-22T10:15:47;98191.50;;;14.61;64.76
39897;BME280;25567;48.276;14.242;2023-03-22T10:21:01;98191.88;;;14.75;63.90
39897;BME280;25567;48.276;14.242;2023-03-22T10:25:59;98187.59;;;14.74;65.69
39897;BME280;25567;48.276;14.242;2023-03-22T10:28:37;98174.03;;;14.96;65.08
39897;BME280;25567;48.276;14.242;2023-03-22T10:31:05;98177.00;;;15.00;63.71
39897;BME280;25567;48.276;14.242;2023-03-22T10:33:37;98174.59;;;15.09;62.85
39897;BME280;25567;48.276;14.242;2023-03-22T10:36:09;98169.25;;;15.19;62.15
39897;BME280;25567;48.276;14.242;2023-03-22T10:38:44;98171.94;;;15.45;62.91
39897;BME280;25567;48.276;14.242;2023-03-22T10:41:15;98164.97;;;15.49;57.96
39897;BME280;25567;48.276;14.242;2023-03-22T10:43:44;98163.66;;;15.77;60.50
39897;BME280;25567;48.276;14.242;2023-03-22T10:46:18;98166.06;;;15.89;58.14
39897;BME280;25567;48.276;14.242;2023-03-22T10:48:49;98163.38;;;15.79;58.14
39897;BME280;25567;48.276;14.242;2023-03-22T10:51:25;98161.50;;;15.95;61.41
39897;BME280;25567;48.276;14.242;2023-03-22T10:53:55;98155.09;;;15.96;60.37
39897;BME280;25567;48.276;14.242;2023-03-22T10:56:23;98154.81;;;16.08;59.37
39897;BME280;25567;48.276;14.242;2023-03-22T10:58:50;98152.69;;;15.99;56.43
39897;BME280;25567;48.276;14.242;2023-03-22T11:01:27;98147.34;;;15.99;58.13
39897;BME280;25567;48.276;14.242;2023-03-22T11:03:57;98153.19;;;16.12;58.11
39897;BME280;25567;48.276;14.242;2023-03-22T11:06:27;98146.75;;;16.13;54.66
39897;BME280;25567;48.276;14.242;2023-03-22T11:08:59;98141.41;;;16.18;55.74
39897;BME280;25567;48.276;14.242;2023-03-22T11:11:29;98148.88;;;16.16;53.46
39897;BME280;25567;48.276;14.242;2023-03-22T11:14:09;98148.91;;;16.11;56.05
39897;BME280;25567;48.276;14.242;2023-03-22T11:16:42;98138.63;;;16.39;55.37
39897;BME280;25567;48.276;14.242;2023-03-22T11:19:14;98145.56;;;16.45;54.46
39897;BME280;25567;48.276;14.242;2023-03-22T11:21:44;98141.47;;;16.63;54.91
39897;BME280;25567;48.276;14.242;2023-03-22T11:24:12;98139.00;;;16.77;54.43
39897;BME280;25567;48.276;14.242;2023-03-22T11:26:40;98138.13;;;16.87;55.00
39897;BME280;25567;48.276;14.242;2023-03-22T11:29:14;98132.41;;;17.04;54.28
39897;BME280;25567;48.276;14.242;2023-03-22T11:34:23;98128.94;;;17.03;51.26
39897;BME280;25567;48.276;14.242;2023-03-22T11:36:51;98113.94;;;17.02;52.63
39897;BME280;25567;48.276;14.242;2023-03-22T11:39:23;98110.63;;;17.15;53.85
39897;BME280;25567;48.276;14.242;2023-03-22T11:41:57;98110.88;;;17.19;50.54
39897;BME280;25567;48.276;14.242;2023-03-22T11:44:31;98118.34;;;17.22;52.88
39897;BME280;25567;48.276;14.242;2023-03-22T11:47:01;98101.69;;;17.25;53.37
39897;BME280;25567;48.276;14.242;2023-03-22T11:49:38;98113.03;;;17.17;52.83
39897;BME280;25567;48.276;14.242;2023-03-22T11:52:13;98098.56;;;17.18;51.55
39897;BME280;25567;48.276;14.242;2023-03-22T11:54:42;98097.91;;;17.31;52.55
39897;BME280;25567;48.276;14.242;2023-03-22T11:57:14;98094.19;;;17.27;52.60
39897;BME280;25567;48.276;14.242;2023-03-22T12:02:34;98096.63;;;17.53;51.22
39897;BME280;25567;48.276;14.242;2023-03-22T12:05:14;98090.16;;;17.59;50.14
39897;BME280;25567;48.276;14.242;2023-03-22T12:07:45;98083.00;;;17.49;46.82
39897;BME280;25567;48.276;14.242;2023-03-22T12:10:31;98086.44;;;17.55;49.34
39897;BME280;25567;48.276;14.242;2023-03-22T12:13:03;98080.78;;;17.57;48.65
39897;BME280;25567;48.276;14.242;2023-03-22T12:15:37;98084.59;;;17.50;49.02
39897;BME280;25567;48.276;14.242;2023-03-22T12:18:13;98084.22;;;17.62;48.24
39897;BME280;25567;48.276;14.242;2023-03-22T12:20:48;98077.03;;;17.58;46.80
39897;BME280;25567;48.276;14.242;2023-03-22T12:23:20;98067.66;;;17.55;46.43
39897;BME280;25567;48.276;14.242;2023-03-22T12:25:50;98072.34;;;17.68;47.88
39897;BME280;25567;48.276;14.242;2023-03-22T12:28:25;98065.78;;;17.56;48.06
39897;BME280;25567;48.276;14.242;2023-03-22T12:30:54;98053.47;;;17.79;48.94
39897;BME280;25567;48.276;14.242;2023-03-22T12:33:29;98059.19;;;17.72;47.37
39897;BME280;25567;48.276;14.242;2023-03-22T12:36:01;98045.97;;;17.76;48.15
39897;BME280;25567;48.276;14.242;2023-03-22T12:38:46;98046.09;;;17.90;46.54
39897;BME280;25567;48.276;14.242;2023-03-22T12:41:16;98045.94;;;17.81;46.91
39897;BME280;25567;48.276;14.242;2023-03-22T12:46:32;98043.25;;;17.81;47.10
39897;BME280;25567;48.276;14.242;2023-03-22T12:49:08;98047.72;;;17.91;47.50
39897;BME280;25567;48.276;14.242;2023-03-22T12:51:40;98048.00;;;17.89;47.58
39897;BME280;25567;48.276;14.242;2023-03-22T12:54:12;98043.19;;;17.86;48.60
39897;BME280;25567;48.276;14.242;2023-03-22T12:56:43;98039.84;;;17.99;48.59
39897;BME280;25567;48.276;14.242;2023-03-22T12:59:19;98037.69;;;18.02;48.87
39897;BME280;25567;48.276;14.242;2023-03-22T13:01:53;98033.41;;;18.00;49.49
39897;BME280;25567;48.276;14.242;2023-03-22T13:07:29;98028.06;;;18.20;48.49
39897;BME280;25567;48.276;14.242;2023-03-22T13:09:58;98019.94;;;18.25;48.49
39897;BME280;25567;48.276;14.242;2023-03-22T13:12:29;98026.66;;;18.22;47.39
39897;BME280;25567;48.276;14.242;2023-03-22T13:15:01;98019.66;;;18.26;47.45
39897;BME280;25567;48.276;14.242;2023-03-22T13:25:34;98003.47;;;18.50;48.30
39897;BME280;25567;48.276;14.242;2023-03-22T13:28:24;98003.09;;;18.57;47.94
39897;BME280;25567;48.276;14.242;2023-03-22T13:30:57;97995.81;;;18.77;46.80
39897;BME280;25567;48.276;14.242;2023-03-22T13:33:26;97990.53;;;18.72;46.54
39897;BME280;25567;48.276;14.242;2023-03-22T13:35:57;97997.28;;;18.69;47.22
39897;BME280;25567;48.276;14.242;2023-03-22T13:38:28;97987.03;;;18.71;47.19
39897;BME280;25567;48.276;14.242;2023-03-22T13:48:53;97975.41;;;18.76;46.90
39897;BME280;25567;48.276;14.242;2023-03-22T14:04:51;97954.63;;;19.14;46.44
39897;BME280;25567;48.276;14.242;2023-03-22T14:07:32;97953.50;;;19.02;45.20
39897;BME280;25567;48.276;14.242;2023-03-22T14:10:04;97951.03;;;18.91;45.39
39897;BME280;25567;48.276;14.242;2023-03-22T14:12:49;97946.19;;;18.88;46.06
39897;BME280;25567;48.276;14.242;2023-03-22T14:15:21;97939.16;;;18.92;47.05
39897;BME280;25567;48.276;14.242;2023-03-22T14:20:28;97941.88;;;19.06;45.51
39897;BME280;25567;48.276;14.242;2023-03-22T14:22:58;97930.84;;;19.08;46.37
39897;BME280;25567;48.276;14.242;2023-03-22T14:25:28;97932.44;;;19.23;46.12
39897;BME280;25567;48.276;14.242;2023-03-22T14:27:55;97932.25;;;19.19;46.15
39897;BME280;25567;48.276;14.242;2023-03-22T14:30:35;97933.81;;;19.20;45.22
39897;BME280;25567;48.276;14.242;2023-03-22T14:33:17;97934.81;;;19.24;45.88
39897;BME280;25567;48.276;14.242;2023-03-22T14:35:53;97933.03;;;19.20;45.89
39897;BME280;25567;48.276;14.242;2023-03-22T14:38:24;97922.88;;;19.16;45.79